sensor_id;sensor_type;location;lat;lon;timestamp;pressure;altitude;pressure_sealevel;temperature;humidity
75219;BME280;63801;49.414;19.474;2023-01-15T00:01:41;93462.03;;;2.16;74.18
75219;BME280;63801;49.414;19.474;2023-01-15T00:03:42;93461.22;;;2.15;74.13
75219;BME280;63801;49.414;19.474;2023-01-15T00:05:42;93448.47;;;2.04;73.98
75219;BME280;63801;49.414;19.474;2023-01-15T00:07:42;93476.09;;;2.16;74.11
75219;BME280;63801;49.414;19.474;2023-01-15T00:09:43;93456.88;;;2.19;73.98
75219;BME280;63801;49.414;19.474;2023-01-15T00:11:43;93450.59;;;2.15;74.28
75219;BME280;63801;49.414;19.474;2023-01-15T00:13:44;93473.78;;;2.23;73.91
75219;BME280;63801;49.414;19.474;2023-01-15T00:15:44;93441.22;;;2.18;73.79
75219;BME280;63801;49.414;19.474;2023-01-15T00:17:45;93444.50;;;2.15;73.95
75219;BME280;63801;49.414;19.474;2023-01-15T00:19:45;93429.16;;;2.12;73.90
75219;BME280;63801;49.414;19.474;2023-01-15T00:21:46;93432.72;;;2.07;74.11
75219;BME280;63801;49.414;19.474;2023-01-15T00:23:47;93449.97;;;2.18;73.96
75219;BME280;63801;49.414;19.474;2023-01-15T00:26:09;93454.22;;;2.19;73.18
75219;BME280;63801;49.414;19.474;2023-01-15T00:28:35;93443.13;;;2.26;73.13
75219;BME280;63801;49.414;19.474;2023-01-15T00:30:39;93446.47;;;2.09;73.03
75219;BME280;63801;49.414;19.474;2023-01-15T00:32:41;93436.56;;;2.23;72.71
75219;BME280;63801;49.414;19.474;2023-01-15T00:34:42;93435.94;;;2.26;72.55
75219;BME280;63801;49.414;19.474;2023-01-15T00:36:42;93444.13;;;2.30;72.54
75219;BME280;63801;49.414;19.474;2023-01-15T00:38:42;93422.69;;;2.35;72.50
75219;BME280;63801;49.414;19.474;2023-01-15T00:40:43;93425.69;;;2.34;71.95
75219;BME280;63801;49.414;19.474;2023-01-15T00:42:43;93450.59;;;2.38;72.18
75219;BME280;63801;49.414;19.474;2023-01-15T00:44:43;93431.47;;;2.36;72.30
75219;BME280;63801;49.414;19.474;2023-01-15T00:46:45;93443.97;;;2.35;71.97
75219;BME280;63801;49.414;19.474;2023-01-15T00:48:46;93454.31;;;2.37;72.46
75219;BME280;63801;49.414;19.474;2023-01-15T00:50:46;93428.03;;;2.35;72.22
75219;BME280;63801;49.414;19.474;2023-01-15T00:52:46;93443.03;;;2.31;72.21
75219;BME280;63801;49.414;19.474;2023-01-15T00:54:47;93433.97;;;2.32;72.46
75219;BME280;63801;49.414;19.474;2023-01-15T00:56:47;93421.91;;;2.35;72.02
75219;BME280;63801;49.414;19.474;2023-01-15T00:58:48;93402.22;;;2.36;72.11
75219;BME280;63801;49.414;19.474;2023-01-15T01:00:53;93411.66;;;2.42;72.07
75219;BME280;63801;49.414;19.474;2023-01-15T01:02:55;93467.97;;;2.44;71.76
75219;BME280;63801;49.414;19.474;2023-01-15T01:04:56;93414.31;;;2.42;71.81
75219;BME280;63801;49.414;19.474;2023-01-15T01:06:56;93441.38;;;2.44;71.80
75219;BME280;63801;49.414;19.474;2023-01-15T01:08:56;93427.31;;;2.43;71.66
75219;BME280;63801;49.414;19.474;2023-01-15T01:11:09;93413.69;;;2.45;71.75
75219;BME280;63801;49.414;19.474;2023-01-15T01:13:10;93419.00;;;2.45;71.79
75219;BME280;63801;49.414;19.474;2023-01-15T01:15:11;93410.06;;;2.41;71.84
75219;BME280;63801;49.414;19.474;2023-01-15T01:17:11;93396.78;;;2.41;71.46
75219;BME280;63801;49.414;19.474;2023-01-15T01:19:17;93409.81;;;2.51;71.57
75219;BME280;63801;49.414;19.474;2023-01-15T01:21:18;93389.75;;;2.45;71.84
75219;BME280;63801;49.414;19.474;2023-01-15T01:23:19;93391.66;;;2.53;71.60
75219;BME280;63801;49.414;19.474;2023-01-15T01:25:19;93388.66;;;2.46;71.50
75219;BME280;63801;49.414;19.474;2023-01-15T01:27:20;93374.28;;;2.47;71.40
75219;BME280;63801;49.414;19.474;2023-01-15T01:29:21;93392.44;;;2.53;71.79
75219;BME280;63801;49.414;19.474;2023-01-15T01:31:23;93371.00;;;2.50;71.86
75219;BME280;63801;49.414;19.474;2023-01-15T01:33:23;93366.63;;;2.54;71.49
75219;BME280;63801;49.414;19.474;2023-01-15T01:35:24;93334.69;;;2.54;71.91
75219;BME280;63801;49.414;19.474;2023-01-15T01:37:24;93327.66;;;2.49;71.72
75219;BME280;63801;49.414;19.474;2023-01-15T01:39:24;93349.09;;;2.53;71.70
75219;BME280;63801;49.414;19.474;2023-01-15T01:41:25;93332.19;;;2.49;71.95
75219;BME280;63801;49.414;19.474;2023-01-15T01:43:28;93324.22;;;2.57;71.88
75219;BME280;63801;49.414;19.474;2023-01-15T01:45:31;93314.03;;;2.51;71.61
75219;BME280;63801;49.414;19.474;2023-01-15T01:47:33;93308.59;;;2.56;72.20
75219;BME280;63801;49.414;19.474;2023-01-15T01:49:35;93259.44;;;2.62;71.74
75219;BME280;63801;49.414;19.474;2023-01-15T01:51:56;93335.66;;;2.58;71.78
75219;BME280;63801;49.414;19.474;2023-01-15T01:53:58;93294.66;;;2.59;71.49
75219;BME280;63801;49.414;19.474;2023-01-15T01:55:59;93271.66;;;2.63;71.70
75219;BME280;63801;49.414;19.474;2023-01-15T01:58:01;93316.44;;;2.61;71.68
75219;BME280;63801;49.414;19.474;2023-01-15T02:00:04;93289.63;;;2.57;71.73
75219;BME280;63801;49.414;19.474;2023-01-15T02:02:06;93285.91;;;2.67;71.36
75219;BME280;63801;49.414;19.474;2023-01-15T02:04:08;93317.41;;;2.74;71.39
75219;BME280;63801;49.414;19.474;2023-01-15T02:06:10;93291.09;;;2.72;71.59
75219;BME280;63801;49.414;19.474;2023-01-15T02:08:12;93293.91;;;2.76;71.49
75219;BME280;63801;49.414;19.474;2023-01-15T02:10:16;93267.28;;;2.76;71.21
75219;BME280;63801;49.414;19.474;2023-01-15T02:12:31;93284.53;;;2.78;71.37
75219;BME280;63801;49.414;19.474;2023-01-15T02:14:48;93287.94;;;2.70;71.46
75219;BME280;63801;49.414;19.474;2023-01-15T02:17:03;93294.38;;;2.78;71.32
75219;BME280;63801;49.414;19.474;2023-01-15T02:24:22;93273.69;;;2.75;71.12
75219;BME280;63801;49.414;19.474;2023-01-15T02:28:50;93279.34;;;2.73;71.57
75219;BME280;63801;49.414;19.474;2023-01-15T02:31:01;93278.88;;;2.71;71.77
75219;BME280;63801;49.414;19.474;2023-01-15T02:33:17;93296.91;;;2.74;71.61
75219;BME280;63801;49.414;19.474;2023-01-15T02:35:27;93304.38;;;2.72;71.93
75219;BME280;63801;49.414;19.474;2023-01-15T02:37:31;93302.97;;;2.66;72.09
75219;BME280;63801;49.414;19.474;2023-01-15T02:39:35;93292.94;;;2.63;71.97
75219;BME280;63801;49.414;19.474;2023-01-15T02:41:49;93272.94;;;2.65;72.24
75219;BME280;63801;49.414;19.474;2023-01-15T02:43:52;93306.72;;;2.65;72.45
75219;BME280;63801;49.414;19.474;2023-01-15T02:45:55;93310.91;;;2.57;72.47
75219;BME280;63801;49.414;19.474;2023-01-15T02:48:02;93314.38;;;2.58;72.48
75219;BME280;63801;49.414;19.474;2023-01-15T02:50:08;93314.53;;;2.61;72.48
75219;BME280;63801;49.414;19.474;2023-01-15T02:52:17;93314.38;;;2.58;72.70
75219;BME280;63801;49.414;19.474;2023-01-15T02:54:19;93298.09;;;2.51;72.77
75219;BME280;63801;49.414;19.474;2023-01-15T02:56:24;93299.81;;;2.55;72.49
75219;BME280;63801;49.414;19.474;2023-01-15T02:58:30;93289.03;;;2.52;71.85
75219;BME280;63801;49.414;19.474;2023-01-15T03:00:36;93298.25;;;2.63;72.09
75219;BME280;63801;49.414;19.474;2023-01-15T03:02:55;93281.66;;;2.57;71.78
75219;BME280;63801;49.414;19.474;2023-01-15T03:05:30;93301.56;;;2.60;72.18
75219;BME280;63801;49.414;19.474;2023-01-15T03:07:35;93295.91;;;2.61;72.18
75219;BME280;63801;49.414;19.474;2023-01-15T03:09:36;93302.78;;;2.54;71.95
75219;BME280;63801;49.414;19.474;2023-01-15T03:11:48;93304.81;;;2.57;72.11
75219;BME280;63801;49.414;19.474;2023-01-15T03:21:05;93313.78;;;2.61;71.85
75219;BME280;63801;49.414;19.474;2023-01-15T03:23:10;93307.78;;;2.55;72.22
75219;BME280;63801;49.414;19.474;2023-01-15T03:25:19;93308.44;;;2.61;72.04
75219;BME280;63801;49.414;19.474;2023-01-15T03:27:20;93311.72;;;2.58;72.17
75219;BME280;63801;49.414;19.474;2023-01-15T03:29:23;93301.56;;;2.60;72.10
75219;BME280;63801;49.414;19.474;2023-01-15T03:31:27;93296.06;;;2.56;72.16
75219;BME280;63801;49.414;19.474;2023-01-15T03:33:28;93304.66;;;2.62;72.10
75219;BME280;63801;49.414;19.474;2023-01-15T03:35:46;93298.88;;;2.51;72.44
75219;BME280;63801;49.414;19.474;2023-01-15T03:37:47;93308.09;;;2.54;72.29
75219;BME280;63801;49.414;19.474;2023-01-15T03:39:48;93307.97;;;2.59;72.22
75219;BME280;63801;49.414;19.474;2023-01-15T03:44:19;93274.31;;;2.63;72.08
75219;BME280;63801;49.414;19.474;2023-01-15T03:49:09;93281.22;;;2.64;71.60
75219;BME280;63801;49.414;19.474;2023-01-15T03:51:33;93246.94;;;2.62;71.91
75219;BME280;63801;49.414;19.474;2023-01-15T03:53:42;93265.88;;;2.61;71.70
75219;BME280;63801;49.414;19.474;2023-01-15T03:55:52;93262.09;;;2.62;71.61
75219;BME280;63801;49.414;19.474;2023-01-15T03:57:59;93246.13;;;2.62;72.08
75219;BME280;63801;49.414;19.474;2023-01-15T04:00:12;93269.63;;;2.60;71.99
75219;BME280;63801;49.414;19.474;2023-01-15T04:02:14;93251.78;;;2.52;72.04
75219;BME280;63801;49.414;19.474;2023-01-15T04:04:17;93241.59;;;2.54;72.13
75219;BME280;63801;49.414;19.474;2023-01-15T04:06:17;93258.47;;;2.49;72.22
75219;BME280;63801;49.414;19.474;2023-01-15T04:08:18;93237.34;;;2.53;72.18
75219;BME280;63801;49.414;19.474;2023-01-15T04:10:19;93262.41;;;2.52;72.33
75219;BME280;63801;49.414;19.474;2023-01-15T04:12:19;93254.75;;;2.50;72.12
75219;BME280;63801;49.414;19.474;2023-01-15T04:14:20;93207.78;;;2.54;72.01
75219;BME280;63801;49.414;19.474;2023-01-15T04:16:25;93230.50;;;2.52;72.47
75219;BME280;63801;49.414;19.474;2023-01-15T04:18:25;93238.47;;;2.52;72.43
75219;BME280;63801;49.414;19.474;2023-01-15T04:20:26;93232.22;;;2.48;72.44
75219;BME280;63801;49.414;19.474;2023-01-15T04:22:26;93238.00;;;2.50;72.44
75219;BME280;63801;49.414;19.474;2023-01-15T04:24:26;93246.13;;;2.53;72.22
75219;BME280;63801;49.414;19.474;2023-01-15T04:26:26;93249.72;;;2.49;72.28
75219;BME280;63801;49.414;19.474;2023-01-15T04:28:27;93219.50;;;2.45;72.38
75219;BME280;63801;49.414;19.474;2023-01-15T04:30:27;93228.59;;;2.52;72.38
75219;BME280;63801;49.414;19.474;2023-01-15T04:32:27;93239.56;;;2.51;72.44
75219;BME280;63801;49.414;19.474;2023-01-15T04:34:28;93214.19;;;2.45;72.46
75219;BME280;63801;49.414;19.474;2023-01-15T04:36:28;93221.41;;;2.53;72.32
75219;BME280;63801;49.414;19.474;2023-01-15T04:38:29;93208.75;;;2.58;72.29
75219;BME280;63801;49.414;19.474;2023-01-15T04:40:29;93206.06;;;2.50;72.46
75219;BME280;63801;49.414;19.474;2023-01-15T04:42:48;93191.84;;;2.54;72.06
75219;BME280;63801;49.414;19.474;2023-01-15T04:45:07;93201.06;;;2.57;72.11
75219;BME280;63801;49.414;19.474;2023-01-15T04:47:08;93215.78;;;2.63;71.98
75219;BME280;63801;49.414;19.474;2023-01-15T04:49:17;93211.41;;;2.67;71.48
75219;BME280;63801;49.414;19.474;2023-01-15T04:51:17;93194.97;;;2.65;71.72
75219;BME280;63801;49.414;19.474;2023-01-15T04:53:17;93211.88;;;2.69;71.47
75219;BME280;63801;49.414;19.474;2023-01-15T04:55:18;93189.47;;;2.70;71.02
75219;BME280;63801;49.414;19.474;2023-01-15T04:57:18;93207.19;;;2.75;71.30
75219;BME280;63801;49.414;19.474;2023-01-15T04:59:21;93190.59;;;2.78;71.28
75219;BME280;63801;49.414;19.474;2023-01-15T05:01:22;93184.50;;;2.77;70.80
75219;BME280;63801;49.414;19.474;2023-01-15T05:03:22;93182.47;;;2.83;70.98
75219;BME280;63801;49.414;19.474;2023-01-15T05:05:23;93168.69;;;2.81;70.65
75219;BME280;63801;49.414;19.474;2023-01-15T05:07:23;93150.84;;;2.81;70.79
75219;BME280;63801;49.414;19.474;2023-01-15T05:09:23;93170.25;;;2.82;70.47
75219;BME280;63801;49.414;19.474;2023-01-15T05:11:24;93159.09;;;2.88;70.46
75219;BME280;63801;49.414;19.474;2023-01-15T05:13:24;93171.34;;;2.89;70.40
75219;BME280;63801;49.414;19.474;2023-01-15T05:15:25;93118.09;;;2.89;70.32
75219;BME280;63801;49.414;19.474;2023-01-15T05:17:25;93176.19;;;2.96;69.89
75219;BME280;63801;49.414;19.474;2023-01-15T05:19:25;93160.53;;;2.94;70.23
75219;BME280;63801;49.414;19.474;2023-01-15T05:21:29;93121.38;;;2.95;70.00
75219;BME280;63801;49.414;19.474;2023-01-15T05:23:30;93154.91;;;2.96;70.10
75219;BME280;63801;49.414;19.474;2023-01-15T05:25:31;93153.19;;;2.91;70.11
75219;BME280;63801;49.414;19.474;2023-01-15T05:27:31;93133.13;;;2.94;70.06
75219;BME280;63801;49.414;19.474;2023-01-15T05:29:31;93134.53;;;3.00;70.13
75219;BME280;63801;49.414;19.474;2023-01-15T05:31:32;93114.97;;;2.96;69.63
75219;BME280;63801;49.414;19.474;2023-01-15T05:33:33;93138.28;;;2.99;69.65
75219;BME280;63801;49.414;19.474;2023-01-15T05:35:33;93125.44;;;3.01;69.82
75219;BME280;63801;49.414;19.474;2023-01-15T05:37:33;93130.13;;;3.04;69.82
75219;BME280;63801;49.414;19.474;2023-01-15T05:39:34;93134.19;;;3.01;69.98
75219;BME280;63801;49.414;19.474;2023-01-15T05:41:35;93121.06;;;2.96;70.25
75219;BME280;63801;49.414;19.474;2023-01-15T05:43:50;93132.19;;;2.98;70.38
75219;BME280;63801;49.414;19.474;2023-01-15T05:45:51;93110.75;;;2.95;70.32
75219;BME280;63801;49.414;19.474;2023-01-15T05:47:52;93107.59;;;2.84;70.31
75219;BME280;63801;49.414;19.474;2023-01-15T05:49:52;93118.09;;;2.89;70.25
75219;BME280;63801;49.414;19.474;2023-01-15T05:51:53;93122.16;;;2.95;70.26
75219;BME280;63801;49.414;19.474;2023-01-15T05:53:57;93106.34;;;2.90;70.39
75219;BME280;63801;49.414;19.474;2023-01-15T05:56:00;93117.78;;;2.99;70.23
75219;BME280;63801;49.414;19.474;2023-01-15T05:58:00;93136.56;;;3.03;69.90
75219;BME280;63801;49.414;19.474;2023-01-15T06:00:00;93137.50;;;2.98;69.67
75219;BME280;63801;49.414;19.474;2023-01-15T06:02:01;93127.78;;;3.02;69.80
75219;BME280;63801;49.414;19.474;2023-01-15T06:04:03;93112.91;;;3.01;69.55
75219;BME280;63801;49.414;19.474;2023-01-15T06:06:04;93136.53;;;3.11;69.63
75219;BME280;63801;49.414;19.474;2023-01-15T06:08:04;93122.13;;;3.12;69.64
75219;BME280;63801;49.414;19.474;2023-01-15T06:10:05;93116.81;;;3.12;69.60
75219;BME280;63801;49.414;19.474;2023-01-15T06:12:06;93130.91;;;3.13;69.49
75219;BME280;63801;49.414;19.474;2023-01-15T06:14:06;93124.47;;;3.14;69.95
75219;BME280;63801;49.414;19.474;2023-01-15T06:16:07;93125.44;;;3.09;69.67
75219;BME280;63801;49.414;19.474;2023-01-15T06:18:10;93117.44;;;3.09;69.81
75219;BME280;63801;49.414;19.474;2023-01-15T06:20:10;93121.06;;;3.05;69.98
75219;BME280;63801;49.414;19.474;2023-01-15T06:22:11;93106.81;;;3.01;70.03
75219;BME280;63801;49.414;19.474;2023-01-15T06:24:11;93131.38;;;3.06;70.02
75219;BME280;63801;49.414;19.474;2023-01-15T06:26:14;93111.16;;;3.05;70.09
75219;BME280;63801;49.414;19.474;2023-01-15T06:28:15;93110.88;;;2.98;70.31
75219;BME280;63801;49.414;19.474;2023-01-15T06:30:15;93112.13;;;2.92;70.28
75219;BME280;63801;49.414;19.474;2023-01-15T06:32:16;93125.28;;;2.97;70.22
75219;BME280;63801;49.414;19.474;2023-01-15T06:34:16;93092.25;;;2.90;70.44
75219;BME280;63801;49.414;19.474;2023-01-15T06:36:18;93097.72;;;2.93;70.47
75219;BME280;63801;49.414;19.474;2023-01-15T06:38:22;93105.41;;;2.95;70.35
75219;BME280;63801;49.414;19.474;2023-01-15T06:40:22;93109.03;;;2.90;70.49
75219;BME280;63801;49.414;19.474;2023-01-15T06:42:23;93122.16;;;2.95;70.31
75219;BME280;63801;49.414;19.474;2023-01-15T06:44:42;93091.00;;;2.96;70.34
75219;BME280;63801;49.414;19.474;2023-01-15T06:47:10;93119.78;;;3.02;70.22
75219;BME280;63801;49.414;19.474;2023-01-15T06:49:20;93117.13;;;3.02;70.01
75219;BME280;63801;49.414;19.474;2023-01-15T06:51:21;93117.00;;;2.99;70.19
75219;BME280;63801;49.414;19.474;2023-01-15T06:53:21;93105.25;;;3.00;70.27
75219;BME280;63801;49.414;19.474;2023-01-15T06:55:22;93129.19;;;3.08;70.25
75219;BME280;63801;49.414;19.474;2023-01-15T06:57:23;93097.41;;;3.03;70.25
75219;BME280;63801;49.414;19.474;2023-01-15T06:59:23;93095.50;;;3.12;69.85
75219;BME280;63801;49.414;19.474;2023-01-15T07:01:23;93101.09;;;3.20;69.73
75219;BME280;63801;49.414;19.474;2023-01-15T07:03:29;93105.81;;;3.23;69.34
75219;BME280;63801;49.414;19.474;2023-01-15T07:05:30;93086.06;;;3.24;68.96
75219;BME280;63801;49.414;19.474;2023-01-15T07:07:30;93082.03;;;3.17;68.87
75219;BME280;63801;49.414;19.474;2023-01-15T07:09:31;93067.75;;;3.22;68.93
75219;BME280;63801;49.414;19.474;2023-01-15T07:11:31;93083.22;;;3.29;68.69
75219;BME280;63801;49.414;19.474;2023-01-15T07:13:32;93090.13;;;3.30;68.48
75219;BME280;63801;49.414;19.474;2023-01-15T07:15:32;93094.94;;;3.45;68.16
75219;BME280;63801;49.414;19.474;2023-01-15T07:17:33;93079.09;;;3.48;67.84
75219;BME280;63801;49.414;19.474;2023-01-15T07:19:34;93078.00;;;3.41;67.63
75219;BME280;63801;49.414;19.474;2023-01-15T07:21:34;93070.97;;;3.45;67.49
75219;BME280;63801;49.414;19.474;2023-01-15T07:23:35;93057.91;;;3.52;67.01
75219;BME280;63801;49.414;19.474;2023-01-15T07:25:35;93070.44;;;3.51;66.72
75219;BME280;63801;49.414;19.474;2023-01-15T07:27:36;93092.69;;;3.55;67.03
75219;BME280;63801;49.414;19.474;2023-01-15T07:29:36;93062.75;;;3.50;66.55
75219;BME280;63801;49.414;19.474;2023-01-15T07:31:37;93049.44;;;3.50;66.62
75219;BME280;63801;49.414;19.474;2023-01-15T07:33:37;93096.78;;;3.53;66.32
75219;BME280;63801;49.414;19.474;2023-01-15T07:35:38;93064.63;;;3.58;66.17
75219;BME280;63801;49.414;19.474;2023-01-15T07:37:38;93084.38;;;3.57;65.90
75219;BME280;63801;49.414;19.474;2023-01-15T07:39:39;93140.78;;;3.59;65.30
75219;BME280;63801;49.414;19.474;2023-01-15T07:41:39;93066.91;;;3.68;65.21
75219;BME280;63801;49.414;19.474;2023-01-15T07:43:58;93071.78;;;3.66;64.71
75219;BME280;63801;49.414;19.474;2023-01-15T07:46:17;93064.84;;;3.74;64.92
75219;BME280;63801;49.414;19.474;2023-01-15T07:48:36;93052.91;;;3.80;64.85
75219;BME280;63801;49.414;19.474;2023-01-15T07:50:55;93073.44;;;3.79;64.88
75219;BME280;63801;49.414;19.474;2023-01-15T07:52:55;93068.28;;;3.74;64.61
75219;BME280;63801;49.414;19.474;2023-01-15T07:54:56;93077.22;;;3.78;64.77
75219;BME280;63801;49.414;19.474;2023-01-15T07:56:56;93048.78;;;3.82;64.77
75219;BME280;63801;49.414;19.474;2023-01-15T07:58:57;93048.97;;;3.77;64.74
75219;BME280;63801;49.414;19.474;2023-01-15T08:00:57;93055.09;;;3.78;64.51
75219;BME280;63801;49.414;19.474;2023-01-15T08:02:57;93060.75;;;3.76;64.64
75219;BME280;63801;49.414;19.474;2023-01-15T08:04:57;93054.19;;;3.74;64.61
75219;BME280;63801;49.414;19.474;2023-01-15T08:07:02;93062.13;;;3.82;64.40
75219;BME280;63801;49.414;19.474;2023-01-15T08:09:03;93054.13;;;3.82;64.40
75219;BME280;63801;49.414;19.474;2023-01-15T08:11:04;93061.69;;;3.80;63.99
75219;BME280;63801;49.414;19.474;2023-01-15T08:13:23;93061.25;;;3.70;63.85
75219;BME280;63801;49.414;19.474;2023-01-15T08:15:42;93054.00;;;3.79;63.64
75219;BME280;63801;49.414;19.474;2023-01-15T08:17:45;93077.38;;;3.73;63.75
75219;BME280;63801;49.414;19.474;2023-01-15T08:19:45;93052.94;;;3.71;63.68
75219;BME280;63801;49.414;19.474;2023-01-15T08:21:45;93056.72;;;3.70;63.68
75219;BME280;63801;49.414;19.474;2023-01-15T08:23:47;93046.72;;;3.67;63.60
75219;BME280;63801;49.414;19.474;2023-01-15T08:25:49;93053.56;;;3.68;63.88
75219;BME280;63801;49.414;19.474;2023-01-15T08:27:50;93076.34;;;3.66;63.99
75219;BME280;63801;49.414;19.474;2023-01-15T08:29:51;93093.09;;;3.66;63.84
75219;BME280;63801;49.414;19.474;2023-01-15T08:31:52;93029.16;;;3.66;63.64
75219;BME280;63801;49.414;19.474;2023-01-15T08:33:52;93051.88;;;3.63;63.46
75219;BME280;63801;49.414;19.474;2023-01-15T08:35:52;93093.09;;;3.66;63.64
75219;BME280;63801;49.414;19.474;2023-01-15T08:37:53;93051.63;;;3.56;63.39
75219;BME280;63801;49.414;19.474;2023-01-15T08:39:53;93050.13;;;3.68;63.09
75219;BME280;63801;49.414;19.474;2023-01-15T08:41:54;93036.50;;;3.69;63.02
75219;BME280;63801;49.414;19.474;2023-01-15T08:43:55;93063.94;;;3.70;62.90
75219;BME280;63801;49.414;19.474;2023-01-15T08:45:57;93022.25;;;3.65;62.98
75219;BME280;63801;49.414;19.474;2023-01-15T08:47:57;93038.84;;;3.71;62.98
75219;BME280;63801;49.414;19.474;2023-01-15T08:49:58;93025.22;;;3.63;63.01
75219;BME280;63801;49.414;19.474;2023-01-15T08:51:58;93003.41;;;3.70;62.78
75219;BME280;63801;49.414;19.474;2023-01-15T08:53:59;93000.75;;;3.70;62.61
75219;BME280;63801;49.414;19.474;2023-01-15T08:56:00;92980.28;;;3.62;62.78
75219;BME280;63801;49.414;19.474;2023-01-15T08:58:00;93006.53;;;3.72;62.87
75219;BME280;63801;49.414;19.474;2023-01-15T09:00:00;92946.91;;;3.77;62.47
75219;BME280;63801;49.414;19.474;2023-01-15T09:02:01;93058.84;;;3.77;62.17
75219;BME280;63801;49.414;19.474;2023-01-15T09:04:01;93011.22;;;3.75;62.12
75219;BME280;63801;49.414;19.474;2023-01-15T09:06:02;93018.09;;;3.76;61.93
75219;BME280;63801;49.414;19.474;2023-01-15T09:08:06;92969.81;;;3.78;62.02
75219;BME280;63801;49.414;19.474;2023-01-15T09:10:07;92947.63;;;3.86;62.00
75219;BME280;63801;49.414;19.474;2023-01-15T09:12:08;92988.59;;;3.81;61.74
75219;BME280;63801;49.414;19.474;2023-01-15T09:14:10;93003.28;;;3.87;61.45
75219;BME280;63801;49.414;19.474;2023-01-15T09:16:11;92985.84;;;3.90;61.94
75219;BME280;63801;49.414;19.474;2023-01-15T09:18:11;92975.97;;;3.90;61.86
75219;BME280;63801;49.414;19.474;2023-01-15T09:20:13;93007.84;;;3.87;61.82
75219;BME280;63801;49.414;19.474;2023-01-15T09:22:14;92982.88;;;3.91;61.81
75219;BME280;63801;49.414;19.474;2023-01-15T09:24:14;93005.78;;;3.92;61.49
75219;BME280;63801;49.414;19.474;2023-01-15T09:28:23;92964.69;;;3.93;61.71
75219;BME280;63801;49.414;19.474;2023-01-15T09:30:24;92878.00;;;3.87;61.77
75219;BME280;63801;49.414;19.474;2023-01-15T09:32:24;93009.09;;;3.89;61.47
75219;BME280;63801;49.414;19.474;2023-01-15T09:34:24;92980.69;;;3.93;61.29
75219;BME280;63801;49.414;19.474;2023-01-15T09:36:27;92999.13;;;3.98;61.40
75219;BME280;63801;49.414;19.474;2023-01-15T09:38:28;92949.44;;;3.94;61.87
75219;BME280;63801;49.414;19.474;2023-01-15T09:42:56;92905.38;;;3.96;61.89
75219;BME280;63801;49.414;19.474;2023-01-15T09:45:21;92880.38;;;4.01;61.73
75219;BME280;63801;49.414;19.474;2023-01-15T09:47:33;92942.22;;;3.94;61.80
75219;BME280;63801;49.414;19.474;2023-01-15T09:54:21;92994.19;;;3.88;62.32
75219;BME280;63801;49.414;19.474;2023-01-15T09:56:28;92969.31;;;3.84;62.87
75219;BME280;63801;49.414;19.474;2023-01-15T09:58:35;92985.47;;;3.79;62.65
75219;BME280;63801;49.414;19.474;2023-01-15T10:00:43;92981.06;;;3.83;62.94
75219;BME280;63801;49.414;19.474;2023-01-15T10:03:04;92963.50;;;3.82;63.14
75219;BME280;63801;49.414;19.474;2023-01-15T10:05:11;92973.50;;;3.85;63.20
75219;BME280;63801;49.414;19.474;2023-01-15T10:07:27;92958.16;;;3.82;63.26
75219;BME280;63801;49.414;19.474;2023-01-15T10:09:34;92978.22;;;3.88;63.14
75219;BME280;63801;49.414;19.474;2023-01-15T10:11:45;92974.94;;;3.83;63.27
75219;BME280;63801;49.414;19.474;2023-01-15T10:14:11;92991.97;;;3.90;63.15
75219;BME280;63801;49.414;19.474;2023-01-15T10:16:20;92967.97;;;3.90;63.29
75219;BME280;63801;49.414;19.474;2023-01-15T10:18:23;92995.09;;;3.92;63.48
75219;BME280;63801;49.414;19.474;2023-01-15T10:25:13;92981.97;;;3.87;63.60
75219;BME280;63801;49.414;19.474;2023-01-15T10:27:18;92992.16;;;3.85;63.81
75219;BME280;63801;49.414;19.474;2023-01-15T10:29:34;92991.72;;;3.83;63.84
75219;BME280;63801;49.414;19.474;2023-01-15T10:31:44;92936.06;;;3.82;63.96
75219;BME280;63801;49.414;19.474;2023-01-15T10:36:41;92947.69;;;3.77;64.30
75219;BME280;63801;49.414;19.474;2023-01-15T10:43:18;92964.88;;;3.88;64.50
75219;BME280;63801;49.414;19.474;2023-01-15T10:47:41;92989.97;;;3.87;64.62
75219;BME280;63801;49.414;19.474;2023-01-15T10:49:43;92974.44;;;3.89;64.75
75219;BME280;63801;49.414;19.474;2023-01-15T10:51:46;92970.66;;;3.90;64.87
75219;BME280;63801;49.414;19.474;2023-01-15T10:54:02;92953.56;;;3.91;64.89
75219;BME280;63801;49.414;19.474;2023-01-15T10:56:15;92965.13;;;3.95;64.86
75219;BME280;63801;49.414;19.474;2023-01-15T10:58:32;92946.47;;;3.95;65.06
75219;BME280;63801;49.414;19.474;2023-01-15T11:00:33;92967.78;;;3.95;65.16
75219;BME280;63801;49.414;19.474;2023-01-15T11:02:44;92916.69;;;3.93;65.08
75219;BME280;63801;49.414;19.474;2023-01-15T11:04:46;92941.13;;;3.95;65.38
75219;BME280;63801;49.414;19.474;2023-01-15T11:06:56;92921.69;;;3.95;65.53
75219;BME280;63801;49.414;19.474;2023-01-15T11:08:59;92945.03;;;3.98;65.61
75219;BME280;63801;49.414;19.474;2023-01-15T11:11:15;92936.69;;;3.99;65.97
75219;BME280;63801;49.414;19.474;2023-01-15T11:13:20;92928.25;;;3.97;65.77
75219;BME280;63801;49.414;19.474;2023-01-15T11:15:44;92922.72;;;4.02;65.91
75219;BME280;63801;49.414;19.474;2023-01-15T11:18:11;92902.03;;;3.99;65.86
75219;BME280;63801;49.414;19.474;2023-01-15T11:20:41;92892.72;;;4.05;66.30
75219;BME280;63801;49.414;19.474;2023-01-15T11:22:42;92913.47;;;4.00;65.55
75219;BME280;63801;49.414;19.474;2023-01-15T11:24:48;92898.94;;;3.97;65.89
75219;BME280;63801;49.414;19.474;2023-01-15T11:26:51;92918.03;;;3.99;65.95
75219;BME280;63801;49.414;19.474;2023-01-15T11:28:52;92905.81;;;3.98;66.04
75219;BME280;63801;49.414;19.474;2023-01-15T11:30:54;92869.81;;;3.92;65.97
75219;BME280;63801;49.414;19.474;2023-01-15T11:32:56;92902.38;;;3.98;66.14
75219;BME280;63801;49.414;19.474;2023-01-15T11:34:59;92867.72;;;3.98;66.34
75219;BME280;63801;49.414;19.474;2023-01-15T11:37:02;92894.81;;;4.00;66.36
75219;BME280;63801;49.414;19.474;2023-01-15T11:39:03;92903.81;;;3.95;66.46
75219;BME280;63801;49.414;19.474;2023-01-15T11:41:03;92878.69;;;3.96;66.26